Time;durP1;ratioP1;P1;durP2;ratioP2;P2;SDS_P1;SDS_P2;PMS_P1;PMS_P2;Temp;Humidity;BMP_temperature;BMP_pressure;BME280_temperature;BME280_humidity;BME280_pressure;Samples;Min_cycle;Max_cycle;Signal;HPM_P1;HPM_P2
2023/02/23 00:00:43;;;;;;;32.70;20.50;;;2.40;99.90;;;;;;2603500;54;21071;31
2023/02/23 00:03:20;;;;;;;36.92;18.60;;;2.40;99.90;;;;;;2603561;54;20030;31
2023/02/23 00:08:47;;;;;;;39.70;19.08;;;2.30;99.90;;;;;;2603398;54;20050;31
2023/02/23 00:11:21;;;;;;;40.40;18.60;;;2.30;99.90;;;;;;2603710;54;20027;31
2023/02/23 00:13:57;;;;;;;38.85;19.98;;;2.20;99.90;;;;;;2603504;54;20058;31
2023/02/23 00:19:51;;;;;;;39.03;19.42;;;2.20;99.90;;;;;;2612227;54;20026;31
2023/02/23 00:22:32;;;;;;;38.88;18.30;;;2.20;99.90;;;;;;2603484;54;20026;31
2023/02/23 00:28:06;;;;;;;38.50;19.48;;;2.10;99.90;;;;;;2603560;54;20089;31
2023/02/23 00:30:53;;;;;;;36.65;19.23;;;2.10;99.90;;;;;;2603319;54;20103;31
2023/02/23 00:33:33;;;;;;;37.20;20.10;;;2.00;99.90;;;;;;2603462;54;20759;31
2023/02/23 00:36:12;;;;;;;36.13;18.70;;;2.00;99.90;;;;;;2603251;54;20894;31
2023/02/23 00:38:51;;;;;;;36.80;19.25;;;2.00;99.90;;;;;;2603419;54;20026;31
2023/02/23 00:44:16;;;;;;;34.80;18.27;;;2.00;99.90;;;;;;2603149;54;20053;31
2023/02/23 00:46:51;;;;;;;40.13;20.00;;;2.00;99.90;;;;;;2621334;46;20023;31
2023/02/23 00:49:27;;;;;;;35.30;19.58;;;1.90;99.90;;;;;;2622064;46;20022;31
2023/02/23 00:52:06;;;;;;;34.50;18.80;;;1.90;99.90;;;;;;2621731;46;20910;31
2023/02/23 00:54:44;;;;;;;42.87;21.07;;;1.90;99.90;;;;;;2603502;54;20270;31
2023/02/23 00:57:21;;;;;;;36.92;20.17;;;1.90;99.90;;;;;;2621836;46;20240;31
2023/02/23 01:06:04;;;;;;;37.35;19.40;;;1.80;99.90;;;;;;2601777;54;20463;31
2023/02/23 01:14:58;;;;;;;35.88;18.85;;;1.70;99.90;;;;;;2603202;54;20053;31
2023/02/23 01:17:34;;;;;;;38.75;19.60;;;1.70;99.90;;;;;;2603524;54;20031;31
2023/02/23 01:28:59;;;;;;;37.75;18.25;;;1.60;99.90;;;;;;2621299;46;20038;31
2023/02/23 01:34:47;;;;;;;32.58;17.15;;;1.50;99.90;;;;;;2610535;54;20026;31
2023/02/23 01:37:22;;;;;;;36.00;19.00;;;1.50;99.90;;;;;;2603168;54;20022;31
2023/02/23 01:46:04;;;;;;;40.75;19.42;;;1.40;99.90;;;;;;2773319;31;20541;31
2023/02/23 01:48:38;;;;;;;31.93;17.87;;;1.40;99.90;;;;;;2603330;54;20033;31
2023/02/23 01:51:19;;;;;;;34.75;17.77;;;1.40;99.90;;;;;;2603143;54;20052;31
2023/02/23 01:53:57;;;;;;;39.05;20.00;;;1.40;99.90;;;;;;2603145;54;20927;31
2023/02/23 01:56:35;;;;;;;36.08;18.17;;;1.40;99.90;;;;;;2603309;54;20901;31
2023/02/23 01:59:11;;;;;;;43.20;19.60;;;1.40;99.90;;;;;;2620979;46;20030;31
2023/02/23 02:01:47;;;;;;;36.70;19.95;;;1.30;99.90;;;;;;2603185;54;20924;31
2023/02/23 02:04:21;;;;;;;39.45;19.48;;;1.30;99.90;;;;;;2621867;46;20035;31
2023/02/23 02:07:02;;;;;;;37.97;19.15;;;1.30;99.90;;;;;;2602862;54;20852;31
2023/02/23 02:09:55;;;;;;;39.03;19.30;;;1.20;99.90;;;;;;2603273;54;20034;31
2023/02/23 02:12:31;;;;;;;36.25;19.65;;;1.20;99.90;;;;;;2603137;54;20027;31
2023/02/23 02:15:08;;;;;;;36.85;18.80;;;1.20;99.90;;;;;;2602998;54;20086;31
2023/02/23 02:17:44;;;;;;;39.78;21.13;;;1.20;99.90;;;;;;2621443;47;20093;31
2023/02/23 02:20:44;;;;;;;39.50;20.33;;;1.20;99.90;;;;;;2602933;54;20026;31
2023/02/23 02:24:08;;;;;;;37.33;18.58;;;1.20;99.90;;;;;;2603055;54;20250;31
2023/02/23 02:26:51;;;;;;;33.63;18.75;;;1.10;99.90;;;;;;2603071;54;20053;31
2023/02/23 02:29:54;;;;;;;31.77;17.85;;;1.10;99.90;;;;;;2603022;54;20022;31
2023/02/23 02:32:48;;;;;;;37.15;19.35;;;1.10;99.90;;;;;;2603159;54;20030;31
2023/02/23 02:35:52;;;;;;;38.88;18.48;;;1.10;99.90;;;;;;2602982;54;20635;31
2023/02/23 02:41:10;;;;;;;36.45;18.75;;;1.00;99.90;;;;;;2603111;54;20088;31
2023/02/23 02:43:54;;;;;;;35.35;18.42;;;1.10;99.90;;;;;;2602886;54;20857;31
2023/02/23 02:46:32;;;;;;;37.72;19.25;;;1.00;99.90;;;;;;2621314;47;20905;31
2023/02/23 02:49:11;;;;;;;41.95;20.55;;;1.00;99.90;;;;;;2602942;54;20031;31
2023/02/23 02:51:47;;;;;;;41.33;19.88;;;1.00;99.90;;;;;;2602931;54;20895;31
2023/02/23 02:54:28;;;;;;;35.03;19.52;;;0.90;99.90;;;;;;2603000;54;20891;31
2023/02/23 02:57:03;;;;;;;37.05;19.40;;;0.90;99.90;;;;;;2602922;54;20835;31
2023/02/23 04:18:24;;;;;;;48.08;22.45;;;0.80;99.90;;;;;;2603587;54;20030;31
2023/02/23 04:20:58;;;;;;;47.15;23.13;;;0.90;99.90;;;;;;2603327;54;20607;31
2023/02/23 04:23:33;;;;;;;46.03;21.20;;;0.80;99.90;;;;;;2603388;54;20836;31
2023/02/23 04:26:11;;;;;;;53.53;23.35;;;0.90;99.90;;;;;;2603612;54;20164;31
2023/02/23 04:28:46;;;;;;;47.67;22.40;;;0.90;99.90;;;;;;2603347;54;20073;31
2023/02/23 04:31:23;;;;;;;49.05;23.20;;;0.90;99.90;;;;;;2720284;39;21668;31
2023/02/23 04:33:59;;;;;;;49.00;23.95;;;0.90;99.90;;;;;;2603743;54;20120;31
2023/02/23 04:36:33;;;;;;;44.22;23.15;;;0.90;99.90;;;;;;2603408;54;20096;31
2023/02/23 04:39:12;;;;;;;49.78;23.40;;;0.90;99.90;;;;;;2603531;54;20624;31
2023/02/23 04:41:49;;;;;;;48.63;22.88;;;0.90;99.90;;;;;;2603614;54;20029;31
2023/02/23 04:44:24;;;;;;;44.00;21.38;;;0.90;99.90;;;;;;2603343;54;20045;31
2023/02/23 04:46:59;;;;;;;53.03;24.35;;;0.90;99.90;;;;;;2603303;54;20026;31
2023/02/23 04:49:34;;;;;;;46.33;23.53;;;0.90;99.90;;;;;;2603613;54;20046;31
2023/02/23 04:52:08;;;;;;;45.88;23.05;;;1.00;99.90;;;;;;2603504;54;20033;31
2023/02/23 04:54:42;;;;;;;44.75;23.50;;;1.00;99.90;;;;;;2603288;54;20085;31
2023/02/23 04:57:20;;;;;;;47.00;23.52;;;0.90;99.90;;;;;;2622068;46;20042;31
2023/02/23 04:59:57;;;;;;;46.00;23.58;;;0.90;99.90;;;;;;2621789;46;20855;31
2023/02/23 05:02:32;;;;;;;55.88;25.67;;;1.00;99.90;;;;;;2621798;46;20914;31
2023/02/23 05:05:08;;;;;;;59.30;26.05;;;1.00;99.90;;;;;;2603423;54;20836;31
2023/02/23 05:07:42;;;;;;;;;;;1.00;99.90;;;;;;2603445;54;20034;31
2023/02/23 05:10:16;;;;;;;51.03;21.90;;;1.00;99.90;;;;;;2602752;54;19949;31
2023/02/23 05:12:55;;;;;;;62.05;27.45;;;1.00;99.90;;;;;;2701974;39;20462;31
2023/02/23 05:15:30;;;;;;;55.25;29.70;;;1.00;99.90;;;;;;2701783;39;20513;31
2023/02/23 05:18:06;;;;;;;56.50;29.65;;;1.00;99.90;;;;;;2603187;54;20052;31
2023/02/23 05:20:43;;;;;;;65.13;35.97;;;1.00;99.90;;;;;;2603530;54;20063;31
2023/02/23 05:23:17;;;;;;;45.97;25.88;;;1.00;99.90;;;;;;2603599;54;20900;31
2023/02/23 05:25:52;;;;;;;50.17;27.83;;;1.00;99.90;;;;;;2603327;54;20052;31
2023/02/23 05:28:31;;;;;;;51.45;24.63;;;0.90;99.90;;;;;;2621622;46;21139;31
2023/02/23 05:31:06;;;;;;;51.72;25.80;;;0.90;99.90;;;;;;2610536;46;20026;31
2023/02/23 05:33:44;;;;;;;70.72;33.75;;;1.00;99.90;;;;;;2602248;54;20101;31
2023/02/23 05:36:19;;;;;;;73.55;40.40;;;1.00;99.90;;;;;;2621915;46;21609;31
2023/02/23 05:38:56;;;;;;;63.95;37.88;;;1.00;99.90;;;;;;2603180;54;20794;31
2023/02/23 05:41:31;;;;;;;64.90;36.78;;;0.90;99.90;;;;;;2603473;54;21672;31
2023/02/23 05:44:08;;;;;;;59.40;34.30;;;0.90;99.90;;;;;;2603296;54;20038;31
2023/02/23 05:46:43;;;;;;;56.65;31.17;;;0.90;99.90;;;;;;2603423;54;20027;31
2023/02/23 05:49:18;;;;;;;53.55;29.08;;;0.90;99.90;;;;;;2621772;46;20027;31
2023/02/23 05:51:53;;;;;;;48.97;26.58;;;0.90;99.90;;;;;;2603162;54;20085;31
2023/02/23 05:54:27;;;;;;;54.13;25.02;;;0.90;99.90;;;;;;2603063;54;20072;31
2023/02/23 05:57:05;;;;;;;50.45;25.80;;;0.90;99.90;;;;;;2603181;54;20096;31
2023/02/23 05:59:40;;;;;;;47.67;24.83;;;0.90;99.90;;;;;;2621198;46;20885;31
2023/02/23 06:02:22;;;;;;;48.40;24.80;;;0.90;99.90;;;;;;2603339;54;20239;31
2023/02/23 06:04:58;;;;;;;50.95;24.40;;;0.90;99.90;;;;;;2603049;54;20757;31
2023/02/23 06:07:34;;;;;;;51.28;26.08;;;0.90;99.90;;;;;;2622030;46;20136;31
2023/02/23 06:10:11;;;;;;;49.63;25.77;;;0.90;99.90;;;;;;2603310;54;20933;31
2023/02/23 06:12:49;;;;;;;53.83;26.17;;;0.90;99.90;;;;;;2621377;46;20030;31
2023/02/23 06:15:24;;;;;;;46.53;26.50;;;0.90;99.90;;;;;;2603103;54;20030;31
2023/02/23 06:18:07;;;;;;;50.08;25.00;;;0.90;99.90;;;;;;2603026;54;20034;31
2023/02/23 07:01:29;;;;;;;52.35;30.20;;;1.30;99.90;;;;;;2602676;54;20038;31
2023/02/23 07:04:07;;;;;;;52.55;27.27;;;1.40;99.90;;;;;;2602657;54;20143;31
2023/02/23 07:06:44;;;;;;;54.85;28.83;;;1.50;99.90;;;;;;2602788;54;20030;31
2023/02/23 07:09:21;;;;;;;59.08;29.05;;;1.60;99.90;;;;;;2602927;54;20034;31
2023/02/23 07:14:46;;;;;;;52.03;27.35;;;1.80;99.90;;;;;;2602915;54;20053;31
2023/02/23 07:17:27;;;;;;;54.95;29.73;;;1.90;99.90;;;;;;2602967;54;20886;31
2023/02/23 07:20:05;;;;;;;53.95;29.65;;;2.00;99.90;;;;;;2702109;39;21660;31
2023/02/23 07:22:42;;;;;;;52.80;28.88;;;2.10;99.90;;;;;;2720741;39;20474;31
2023/02/23 07:25:18;;;;;;;54.50;29.20;;;2.20;99.90;;;;;;2622285;46;20852;31
2023/02/23 07:27:55;;;;;;;57.15;29.08;;;2.40;99.90;;;;;;2603689;54;20033;31
2023/02/23 07:30:32;;;;;;;55.30;29.50;;;2.50;99.90;;;;;;2603815;54;19961;31
2023/02/23 07:33:12;;;;;;;48.65;28.30;;;2.60;99.90;;;;;;2615971;46;20030;31
2023/02/23 07:35:51;;;;;;;56.75;30.30;;;2.80;99.90;;;;;;2602857;54;21017;31
2023/02/23 07:38:31;;;;;;;56.58;29.27;;;2.90;99.90;;;;;;2602627;54;20052;31
2023/02/23 07:41:08;;;;;;;55.47;29.08;;;3.10;99.90;;;;;;2701137;39;20570;31
2023/02/23 07:43:50;;;;;;;57.92;29.65;;;3.20;99.90;;;;;;2602730;54;20030;31
2023/02/23 07:46:25;;;;;;;56.08;31.50;;;3.30;99.90;;;;;;2772804;31;22426;31
2023/02/23 07:49:11;;;;;;;53.92;29.20;;;3.40;99.90;;;;;;2701137;39;20481;31
2023/02/23 07:51:54;;;;;;;56.97;30.33;;;3.50;99.90;;;;;;2622133;46;20068;31
2023/02/23 07:54:33;;;;;;;53.70;29.83;;;3.60;99.90;;;;;;2602765;54;20030;31
2023/02/23 07:57:19;;;;;;;55.90;29.92;;;3.80;99.90;;;;;;2603322;54;20057;31
2023/02/23 08:00:01;;;;;;;53.10;29.60;;;3.90;99.90;;;;;;2603576;54;20780;31
2023/02/23 08:02:49;;;;;;;51.20;28.60;;;4.10;99.90;;;;;;2603442;54;20814;31
2023/02/23 08:05:27;;;;;;;55.27;28.77;;;4.20;99.90;;;;;;2702013;39;20582;31
2023/02/23 08:08:05;;;;;;;53.90;29.50;;;4.40;99.90;;;;;;2603375;54;20249;31
2023/02/23 08:10:43;;;;;;;54.22;28.20;;;4.40;99.90;;;;;;2621799;46;20026;31
2023/02/23 08:13:21;;;;;;;53.17;29.15;;;4.40;99.90;;;;;;2701952;39;20589;31
2023/02/23 08:16:20;;;;;;;46.95;27.90;;;4.50;99.90;;;;;;2621081;46;22428;31
2023/02/23 08:19:04;;;;;;;52.97;30.58;;;4.60;99.90;;;;;;2603614;54;20116;31
2023/02/23 08:28:10;;;;;;;59.35;31.80;;;5.00;99.90;;;;;;2603451;54;20148;31
2023/02/23 08:33:50;;;;;;;50.58;29.55;;;5.30;99.90;;;;;;2602622;54;20089;31
2023/02/23 08:36:29;;;;;;;56.10;30.33;;;5.30;99.90;;;;;;2603629;54;19935;31
2023/02/23 08:39:06;;;;;;;55.10;30.88;;;5.50;99.90;;;;;;2603663;54;20926;31
2023/02/23 08:41:45;;;;;;;50.17;28.00;;;5.70;99.90;;;;;;2603558;54;20033;31
2023/02/23 08:44:20;;;;;;;55.60;30.45;;;5.90;99.90;;;;;;2622287;46;20052;31
2023/02/23 08:47:03;;;;;;;50.72;28.20;;;6.10;99.90;;;;;;2622004;46;20037;31
2023/02/23 08:49:41;;;;;;;51.03;28.73;;;6.10;99.90;;;;;;2622136;46;20771;31
2023/02/23 08:52:17;;;;;;;45.13;27.85;;;6.20;99.90;;;;;;2603536;54;20031;31
2023/02/23 08:54:55;;;;;;;51.90;30.00;;;6.40;99.90;;;;;;2603533;54;20027;31
2023/02/23 08:57:40;;;;;;;52.45;30.60;;;6.50;99.90;;;;;;2609405;46;20882;31
2023/02/23 09:00:30;;;;;;;;;;;6.60;99.90;;;;;;2603323;54;20060;31
2023/02/23 09:03:08;;;;;;;44.60;26.90;;;6.70;99.90;;;;;;2603331;54;20008;31
2023/02/23 09:05:46;;;;;;;47.42;29.50;;;6.90;99.90;;;;;;2602721;54;20842;31
2023/02/23 09:08:24;;;;;;;46.60;27.00;;;7.10;99.90;;;;;;2603367;54;20101;31
2023/02/23 09:11:04;;;;;;;59.95;29.33;;;7.20;99.90;;;;;;2621898;46;20120;31
2023/02/23 09:13:46;;;;;;;47.10;28.05;;;7.30;99.90;;;;;;2602479;54;20131;31
2023/02/23 09:16:24;;;;;;;51.27;28.53;;;7.40;99.90;;;;;;2602438;54;20066;31
2023/02/23 09:19:04;;;;;;;45.58;26.70;;;7.50;99.90;;;;;;2602747;54;19938;31
2023/02/23 09:21:50;;;;;;;46.87;28.40;;;7.60;99.90;;;;;;2603077;54;20144;31
2023/02/23 09:24:43;;;;;;;48.90;28.27;;;7.70;99.90;;;;;;2603473;54;20042;31
2023/02/23 09:27:20;;;;;;;58.03;32.65;;;7.80;99.90;;;;;;2603329;54;20839;31
2023/02/23 09:30:00;;;;;;;47.08;28.70;;;7.80;99.90;;;;;;2602482;54;20031;31
2023/02/23 09:32:37;;;;;;;49.45;29.10;;;7.80;99.90;;;;;;2603352;54;20843;31
2023/02/23 09:35:17;;;;;;;48.78;28.85;;;7.90;99.90;;;;;;2621831;46;20577;31
2023/02/23 09:37:53;;;;;;;47.35;28.55;;;8.00;99.90;;;;;;2621995;46;20033;31
2023/02/23 09:40:31;;;;;;;44.33;27.23;;;8.20;99.90;;;;;;2621636;46;20093;31
2023/02/23 09:43:08;;;;;;;46.55;27.45;;;8.30;99.90;;;;;;2613104;46;20779;31
2023/02/23 09:45:51;;;;;;;43.75;29.55;;;8.50;99.90;;;;;;2603214;54;20073;31
2023/02/23 09:48:26;;;;;;;40.35;27.60;;;8.60;99.90;;;;;;2603395;54;19941;31
2023/02/23 09:51:01;;;;;;;45.22;27.75;;;8.70;99.90;;;;;;2621664;46;20026;31
2023/02/23 09:53:43;;;;;;;50.85;28.33;;;8.70;99.90;;;;;;2603423;54;20065;31
2023/02/23 09:56:25;;;;;;;47.60;25.65;;;8.80;99.90;;;;;;2603266;54;20030;31
2023/02/23 09:59:05;;;;;;;57.47;35.65;;;8.90;99.90;;;;;;2603366;54;20031;31
2023/02/23 10:01:52;;;;;;;43.20;28.95;;;9.00;99.90;;;;;;2621714;46;20030;31
2023/02/23 10:04:27;;;;;;;43.58;27.42;;;9.10;99.90;;;;;;2621364;46;20049;31
2023/02/23 10:07:04;;;;;;;43.70;26.08;;;9.10;99.90;;;;;;2603125;54;20857;31
2023/02/23 10:09:52;;;;;;;48.87;27.77;;;9.30;99.90;;;;;;2603184;54;20089;31
2023/02/23 10:12:32;;;;;;;43.47;24.98;;;9.40;99.90;;;;;;2603384;54;20034;31
2023/02/23 10:15:23;;;;;;;50.13;27.77;;;9.50;99.90;;;;;;2603329;54;19930;31
2023/02/23 10:18:13;;;;;;;45.22;27.10;;;9.50;99.90;;;;;;2621732;46;20238;31
2023/02/23 10:20:52;;;;;;;45.83;26.05;;;9.50;99.90;;;;;;2604990;54;20056;31
2023/02/23 10:23:32;;;;;;;46.42;25.98;;;9.50;99.90;;;;;;2604684;54;20034;31
2023/02/23 10:26:14;;;;;;;57.50;29.63;;;9.40;99.90;;;;;;2604098;54;20061;31
2023/02/23 10:28:53;;;;;;;50.85;28.98;;;9.60;99.90;;;;;;2604793;54;20992;31
2023/02/23 10:31:33;;;;;;;141.60;62.35;;;9.70;99.90;;;;;;2604884;54;20843;31
2023/02/23 10:34:17;;;;;;;45.35;25.30;;;9.80;99.90;;;;;;2605037;54;20046;31
2023/02/23 10:36:54;;;;;;;56.47;30.80;;;9.90;99.90;;;;;;2604223;54;20884;31
2023/02/23 10:39:31;;;;;;;40.37;24.63;;;9.90;99.90;;;;;;2604644;54;20772;31
2023/02/23 10:42:11;;;;;;;39.67;22.98;;;9.90;99.90;;;;;;2604907;54;20031;31
2023/02/23 10:44:46;;;;;;;43.45;24.48;;;10.00;99.90;;;;;;2623332;46;20128;31
2023/02/23 10:47:23;;;;;;;36.25;22.15;;;10.10;99.90;;;;;;2604838;54;20846;31
2023/02/23 10:50:09;;;;;;;48.20;25.30;;;10.20;99.90;;;;;;2623358;46;20061;31
2023/02/23 10:52:47;;;;;;;38.60;23.40;;;10.20;99.90;;;;;;2605007;54;20081;31
2023/02/23 10:55:27;;;;;;;38.45;23.13;;;10.30;99.90;;;;;;2604975;54;20030;31
2023/02/23 10:58:08;;;;;;;44.55;26.42;;;10.40;99.90;;;;;;2604078;54;20026;31
2023/02/23 11:00:57;;;;;;;51.10;25.55;;;10.40;99.90;;;;;;2603824;54;20874;31
2023/02/23 11:03:38;;;;;;;45.45;24.83;;;10.30;99.90;;;;;;2604840;54;20026;31
2023/02/23 11:06:38;;;;;;;38.60;24.27;;;10.30;99.90;;;;;;2604787;54;20740;31
2023/02/23 11:09:34;;;;;;;39.00;24.60;;;10.20;99.90;;;;;;2623381;46;20922;31
2023/02/23 11:12:32;;;;;;;46.03;30.20;;;10.20;99.90;;;;;;2604752;54;20042;31
2023/02/23 11:15:23;;;;;;;42.88;25.50;;;10.20;99.90;;;;;;2604864;54;19997;31
2023/02/23 11:18:20;;;;;;;37.97;22.93;;;10.10;99.90;;;;;;2623329;46;20145;31
2023/02/23 11:20:57;;;;;;;34.80;20.70;;;10.10;99.90;;;;;;2604823;54;19946;31
2023/02/23 11:23:43;;;;;;;35.28;21.33;;;10.10;99.90;;;;;;2604757;54;20089;31
2023/02/23 11:26:21;;;;;;;41.05;23.00;;;10.00;99.90;;;;;;2623247;46;20108;31
2023/02/23 11:29:02;;;;;;;39.80;22.70;;;9.90;99.90;;;;;;2604655;54;20767;31
2023/02/23 11:31:42;;;;;;;37.30;23.23;;;9.80;99.90;;;;;;2603585;54;20053;31
2023/02/23 11:34:23;;;;;;;42.83;22.88;;;9.80;99.90;;;;;;2603828;54;20110;31
2023/02/23 11:37:06;;;;;;;41.95;21.48;;;9.80;99.90;;;;;;2602891;54;20840;31
2023/02/23 11:39:52;;;;;;;50.20;28.30;;;9.80;99.90;;;;;;2603962;54;20023;31
2023/02/23 11:42:32;;;;;;;41.27;25.13;;;9.80;99.90;;;;;;2603848;54;20033;31
2023/02/23 11:45:16;;;;;;;37.45;22.52;;;9.70;99.90;;;;;;2603010;54;20038;31
2023/02/23 11:47:55;;;;;;;36.78;23.95;;;9.60;99.90;;;;;;2603851;54;20104;31
2023/02/23 11:50:41;;;;;;;35.00;23.30;;;9.60;99.90;;;;;;2603788;54;20868;31
2023/02/23 11:53:18;;;;;;;40.17;25.80;;;9.60;99.90;;;;;;2603613;54;20023;31
2023/02/23 11:56:06;;;;;;;38.28;25.00;;;9.50;99.90;;;;;;2603905;54;20884;31
2023/02/23 11:58:48;;;;;;;66.20;39.72;;;9.50;99.90;;;;;;2603907;54;20031;31
2023/02/23 12:04:29;;;;;;;42.47;25.38;;;9.40;99.90;;;;;;2603899;54;20031;31
2023/02/23 12:07:28;;;;;;;47.10;25.40;;;9.30;99.90;;;;;;2702421;39;21002;31
2023/02/23 12:10:06;;;;;;;41.90;25.17;;;9.20;99.90;;;;;;2603550;54;20031;31
2023/02/23 12:12:58;;;;;;;45.22;25.35;;;9.20;99.90;;;;;;2621779;46;20038;31
2023/02/23 12:15:45;;;;;;;41.42;24.17;;;9.20;99.90;;;;;;2603376;54;19985;31
2023/02/23 12:23:37;;;;;;;42.53;27.08;;;9.40;99.90;;;;;;2603577;54;20031;31
2023/02/23 12:26:16;;;;;;;45.43;26.17;;;9.40;99.90;;;;;;2603814;54;21660;31
2023/02/23 12:28:58;;;;;;;53.75;32.70;;;9.50;99.90;;;;;;2603293;54;20042;31
2023/02/23 12:31:41;;;;;;;39.00;24.77;;;9.60;99.90;;;;;;2603537;54;20056;31
2023/02/23 12:34:23;;;;;;;41.53;24.95;;;9.60;99.90;;;;;;2603459;54;20085;31
2023/02/23 12:37:06;;;;;;;56.00;28.48;;;9.60;99.90;;;;;;2603540;54;20026;31
2023/02/23 12:39:45;;;;;;;39.90;23.40;;;9.60;99.90;;;;;;2603767;54;20030;31
2023/02/23 12:42:25;;;;;;;42.15;25.67;;;9.60;99.90;;;;;;2603516;54;20038;31
2023/02/23 12:45:01;;;;;;;40.05;24.60;;;9.60;99.90;;;;;;2603259;54;20922;31
2023/02/23 12:47:43;;;;;;;41.03;24.20;;;9.70;99.90;;;;;;2613876;46;20031;31
2023/02/23 12:50:24;;;;;;;43.53;25.50;;;9.70;99.90;;;;;;2606653;46;20771;31
2023/02/23 12:53:05;;;;;;;40.40;25.85;;;9.70;99.90;;;;;;2602413;54;20918;31
2023/02/23 12:55:46;;;;;;;37.10;24.13;;;9.80;99.90;;;;;;2602820;54;20053;31
2023/02/23 12:58:27;;;;;;;39.72;25.10;;;9.80;99.90;;;;;;2602569;54;20897;31
2023/02/23 13:01:03;;;;;;;39.60;24.80;;;9.90;99.90;;;;;;2773372;31;20622;31
2023/02/23 13:03:52;;;;;;;;;;;9.90;99.90;;;;;;2603654;54;20897;31
2023/02/23 13:06:34;;;;;;;35.40;22.35;;;9.90;99.90;;;;;;2702249;39;20938;31
2023/02/23 13:09:19;;;;;;;44.22;24.50;;;10.00;99.90;;;;;;2603403;54;21405;31
2023/02/23 13:12:11;;;;;;;40.28;24.65;;;10.00;99.90;;;;;;2621763;46;20032;31
2023/02/23 13:14:55;;;;;;;35.07;21.63;;;10.10;99.90;;;;;;2603221;54;20026;31
2023/02/23 13:17:39;;;;;;;40.90;22.45;;;10.10;99.90;;;;;;2603458;54;20026;31
2023/02/23 13:20:20;;;;;;;35.20;23.30;;;10.20;99.90;;;;;;2621679;46;25045;31
2023/02/23 13:22:59;;;;;;;36.03;22.98;;;10.20;99.90;;;;;;2602435;54;20027;31
2023/02/23 13:25:41;;;;;;;45.00;23.50;;;10.30;99.90;;;;;;2705673;39;21640;31
2023/02/23 13:28:28;;;;;;;39.47;23.10;;;10.30;99.90;;;;;;2602529;54;20045;31
2023/02/23 13:31:23;;;;;;;60.30;34.65;;;10.40;99.90;;;;;;2603355;54;20027;31
2023/02/23 13:34:02;;;;;;;39.57;24.03;;;10.50;99.90;;;;;;2602898;54;19934;31
2023/02/23 13:36:49;;;;;;;63.67;32.95;;;10.50;99.90;;;;;;2603302;54;20282;31
2023/02/23 13:39:23;;;;;;;37.85;24.60;;;10.40;99.90;;;;;;2603121;54;20033;31
2023/02/23 13:42:08;;;;;;;39.88;23.67;;;10.50;99.90;;;;;;2603018;54;20103;31
2023/02/23 13:45:00;;;;;;;35.42;22.88;;;10.60;99.90;;;;;;2603385;54;20838;31
2023/02/23 13:47:44;;;;;;;39.70;22.55;;;10.60;99.90;;;;;;2603560;54;20026;31
2023/02/23 13:50:24;;;;;;;36.35;22.92;;;10.70;99.90;;;;;;2614758;46;20034;31
2023/02/23 13:53:14;;;;;;;37.43;23.60;;;10.70;99.90;;;;;;2603422;54;20030;31
2023/02/23 13:55:53;;;;;;;34.88;21.33;;;10.80;99.90;;;;;;2603020;54;20781;31
2023/02/23 13:58:32;;;;;;;36.17;23.60;;;10.90;99.90;;;;;;2602465;54;20577;31
2023/02/23 14:01:22;;;;;;;39.60;25.70;;;10.90;99.90;;;;;;2602255;54;21735;31
2023/02/23 14:04:16;;;;;;;50.38;26.30;;;10.90;99.90;;;;;;2602557;54;20850;31
2023/02/23 14:07:01;;;;;;;40.73;25.27;;;11.00;99.90;;;;;;2603005;54;20872;31
2023/02/23 14:09:47;;;;;;;37.88;24.23;;;11.00;99.90;;;;;;2603174;54;21168;31
2023/02/23 14:12:41;;;;;;;46.13;26.25;;;11.00;99.90;;;;;;2621642;46;20037;31
2023/02/23 14:15:28;;;;;;;43.00;24.15;;;11.10;99.90;;;;;;2603208;54;20886;31
2023/02/23 14:18:04;;;;;;;35.05;23.70;;;11.10;99.90;;;;;;2603195;54;20026;31
2023/02/23 14:27:07;;;;;;;39.17;24.13;;;11.10;99.90;;;;;;2603005;54;20031;31
2023/02/23 14:35:52;;;;;;;37.25;22.27;;;11.10;99.90;;;;;;2608877;47;20104;31
2023/02/23 14:45:25;;;;;;;30.30;21.45;;;11.10;99.90;;;;;;2603079;54;20046;31
2023/02/23 14:48:40;;;;;;;36.15;22.02;;;11.10;99.90;;;;;;2603015;54;20022;31
2023/02/23 14:51:23;;;;;;;46.85;30.25;;;11.00;99.90;;;;;;2603130;54;20030;31
2023/02/23 14:57:09;;;;;;;29.58;20.55;;;11.00;99.90;;;;;;2602946;54;20806;31
2023/02/23 15:00:04;;;;;;;29.95;20.98;;;11.00;99.90;;;;;;2602923;54;20030;31
2023/02/23 15:02:39;;;;;;;31.55;19.75;;;10.90;99.90;;;;;;2602800;54;20796;31
2023/02/23 15:05:31;;;;;;;33.05;20.42;;;11.00;99.90;;;;;;2603022;54;20104;31
2023/02/23 15:08:07;;;;;;;32.07;20.63;;;10.90;99.90;;;;;;2603920;54;20077;31
2023/02/23 15:10:48;;;;;;;34.78;21.05;;;10.90;99.90;;;;;;2603880;54;20036;31
2023/02/23 15:13:30;;;;;;;34.80;20.85;;;10.90;99.90;;;;;;2715515;39;20018;31
2023/02/23 15:16:16;;;;;;;32.58;20.88;;;10.90;99.90;;;;;;2621882;46;20102;31
2023/02/23 15:21:26;;;;;;;29.88;19.85;;;10.90;99.90;;;;;;2702125;39;20470;31
2023/02/23 15:24:06;;;;;;;31.58;19.15;;;10.80;99.90;;;;;;2603376;54;20104;31
2023/02/23 15:26:50;;;;;;;30.13;19.10;;;10.80;99.90;;;;;;2603895;54;20851;31
2023/02/23 15:29:34;;;;;;;32.60;20.30;;;10.80;99.90;;;;;;2622392;46;20033;31
2023/02/23 15:32:23;;;;;;;32.22;19.33;;;10.80;99.90;;;;;;2603704;54;20031;31
2023/02/23 15:35:18;;;;;;;32.40;19.63;;;10.70;99.90;;;;;;2603436;54;20859;31
2023/02/23 15:37:56;;;;;;;27.65;17.60;;;10.70;99.90;;;;;;2603676;54;20023;31
2023/02/23 15:41:00;;;;;;;28.20;17.95;;;10.70;99.90;;;;;;2603774;54;20950;31
2023/02/23 15:43:38;;;;;;;34.70;19.42;;;10.70;99.90;;;;;;2603684;54;20136;31
2023/02/23 15:46:37;;;;;;;30.10;18.90;;;10.70;99.90;;;;;;2603825;54;20026;31
2023/02/23 15:49:56;;;;;;;29.33;19.05;;;10.60;99.90;;;;;;2621979;46;20029;31
2023/02/23 15:52:36;;;;;;;29.02;18.80;;;10.60;99.90;;;;;;2622142;46;20084;31
2023/02/23 15:55:18;;;;;;;34.50;20.25;;;10.60;99.90;;;;;;2603808;54;20898;31
2023/02/23 15:57:58;;;;;;;28.25;18.90;;;10.50;99.90;;;;;;2621740;46;20843;31
2023/02/23 16:00:50;;;;;;;58.72;34.08;;;10.50;99.90;;;;;;2603861;54;20026;31
2023/02/23 16:03:28;;;;;;;125.55;73.97;;;10.50;99.90;;;;;;2603469;54;20049;31
2023/02/23 16:06:24;;;;;;;103.25;55.15;;;10.40;99.90;;;;;;2622233;46;20037;31
2023/02/23 16:09:19;;;;;;;58.50;35.13;;;10.40;99.90;;;;;;2603539;54;20124;31
2023/02/23 16:12:01;;;;;;;39.22;24.60;;;10.40;99.90;;;;;;2603539;54;20042;31
2023/02/23 16:14:46;;;;;;;39.00;23.85;;;10.30;99.90;;;;;;2603515;54;20026;31
2023/02/23 16:17:31;;;;;;;40.20;26.10;;;10.30;99.90;;;;;;2603326;54;20911;31
2023/02/23 16:23:04;;;;;;;45.83;25.23;;;10.20;99.90;;;;;;2602961;54;20085;31
2023/02/23 16:26:06;;;;;;;43.15;25.60;;;10.10;99.90;;;;;;2603547;54;20022;31
2023/02/23 16:28:56;;;;;;;42.28;24.92;;;10.10;99.90;;;;;;2603567;54;20032;31
2023/02/23 16:40:32;;;;;;;42.50;25.85;;;9.80;99.90;;;;;;2602727;54;20769;31
2023/02/23 16:43:28;;;;;;;39.15;25.15;;;9.80;99.90;;;;;;2603491;54;20042;31
2023/02/23 16:46:09;;;;;;;45.90;29.95;;;9.80;99.90;;;;;;2603409;54;20875;31
2023/02/23 16:48:46;;;;;;;50.45;32.05;;;9.80;99.90;;;;;;2610939;46;20026;31
2023/02/23 16:51:26;;;;;;;53.08;36.38;;;9.80;99.90;;;;;;2621637;46;20978;31
2023/02/23 16:54:07;;;;;;;56.85;35.53;;;9.70;99.90;;;;;;2603587;54;20033;31
2023/02/23 16:56:42;;;;;;;55.08;31.83;;;9.70;99.90;;;;;;2603326;54;20867;31
2023/02/23 16:59:20;;;;;;;51.25;29.33;;;9.60;99.90;;;;;;2621585;46;20081;31
2023/02/23 17:01:55;;;;;;;43.60;29.67;;;9.60;99.90;;;;;;2603389;54;20765;31
2023/02/23 17:04:30;;;;;;;48.70;30.98;;;9.60;99.90;;;;;;2603434;54;20038;31
2023/02/23 17:07:07;;;;;;;47.03;30.05;;;9.50;99.90;;;;;;2603332;54;20034;31
2023/02/23 17:09:43;;;;;;;48.88;30.63;;;9.40;99.90;;;;;;2621548;46;20049;31
2023/02/23 17:12:20;;;;;;;50.38;30.40;;;9.40;99.90;;;;;;2603410;54;19947;31
2023/02/23 17:15:09;;;;;;;49.95;31.85;;;9.40;99.90;;;;;;2603367;54;20744;31
2023/02/23 17:17:52;;;;;;;48.85;30.80;;;9.40;99.90;;;;;;2622037;46;20030;31
2023/02/23 17:20:26;;;;;;;48.92;31.30;;;9.30;99.90;;;;;;2603297;54;20150;31
2023/02/23 17:23:03;;;;;;;62.50;35.88;;;9.30;99.90;;;;;;2603308;54;20945;31
2023/02/23 17:25:38;;;;;;;60.58;36.03;;;9.20;99.90;;;;;;2603222;54;20030;31
2023/02/23 17:28:15;;;;;;;64.65;37.60;;;9.20;99.90;;;;;;2621181;46;20108;31
2023/02/23 17:30:54;;;;;;;61.22;36.67;;;9.10;99.90;;;;;;2621433;47;20053;31
2023/02/23 17:33:32;;;;;;;67.30;40.70;;;9.10;99.90;;;;;;2603207;54;19961;31
2023/02/23 17:36:09;;;;;;;69.70;38.00;;;9.10;99.90;;;;;;2603278;54;20097;31
2023/02/23 17:38:45;;;;;;;69.75;39.95;;;9.00;99.90;;;;;;2603321;54;20026;31